Time;durP1;ratioP1;P1;durP2;ratioP2;P2;SDS_P1;SDS_P2;PMS_P1;PMS_P2;Temp;Humidity;BMP_temperature;BMP_pressure;BME280_temperature;BME280_humidity;BME280_pressure;Samples;Min_cycle;Max_cycle;Signal;HPM_P1;HPM_P2
2023/11/26 00:01:04;;;;;;;2.53;1.33;;;;;;;;;;6182070;23;20037;-84
2023/11/26 00:03:30;;;;;;;1.88;0.73;;;;;;;;;;6179713;23;20012;-84
2023/11/26 00:05:56;;;;;;;3.47;1.27;;;;;;;;;;6182496;23;20017;-83
2023/11/26 00:08:23;;;;;;;6.18;1.35;;;;;;;;;;6179798;23;20028;-83
2023/11/26 00:10:49;;;;;;;9.50;4.35;;;;;;;;;;6180829;23;20057;-82
2023/11/26 00:13:16;;;;;;;24.45;7.43;;;;;;;;;;6180052;23;20048;-82
2023/11/26 00:15:42;;;;;;;18.20;6.65;;;;;;;;;;6180643;23;20012;-82
2023/11/26 00:18:08;;;;;;;6.57;3.25;;;;;;;;;;6179878;23;20043;-82
2023/11/26 00:20:34;;;;;;;6.93;2.88;;;;;;;;;;6181876;23;20007;-83
2023/11/26 00:23:00;;;;;;;8.80;2.22;;;;;;;;;;6180002;23;20336;-82
2023/11/26 00:25:26;;;;;;;7.85;3.03;;;;;;;;;;6181104;23;20008;-82
2023/11/26 00:27:52;;;;;;;3.47;1.52;;;;;;;;;;6182741;23;20697;-82
2023/11/26 00:30:19;;;;;;;3.50;1.27;;;;;;;;;;6183317;23;20009;-82
2023/11/26 00:32:45;;;;;;;6.50;1.02;;;;;;;;;;6184133;23;20009;-82
2023/11/26 00:35:12;;;;;;;1.92;1.55;;;;;;;;;;6183619;23;20009;-82
2023/11/26 00:37:38;;;;;;;1.20;0.70;;;;;;;;;;6183269;23;20009;-82
2023/11/26 00:40:05;;;;;;;5.35;1.98;;;;;;;;;;6183187;23;20027;-82
2023/11/26 00:42:32;;;;;;;2.28;1.33;;;;;;;;;;6183462;23;20009;-82
2023/11/26 00:44:58;;;;;;;6.32;1.73;;;;;;;;;;6184203;23;20005;-82
2023/11/26 00:47:24;;;;;;;3.25;1.50;;;;;;;;;;6184730;23;20012;-82
2023/11/26 00:49:50;;;;;;;8.30;1.35;;;;;;;;;;6182557;23;20095;-83
2023/11/26 00:52:16;;;;;;;3.30;2.00;;;;;;;;;;6182607;23;20067;-82
2023/11/26 00:54:42;;;;;;;9.60;2.85;;;;;;;;;;6182109;23;20413;-82
2023/11/26 00:57:07;;;;;;;13.18;3.47;;;;;;;;;;6184220;23;20092;-82
2023/11/26 00:59:33;;;;;;;8.55;5.13;;;;;;;;;;6176836;23;20313;-82
2023/11/26 01:02:00;;;;;;;52.92;19.20;;;;;;;;;;6127756;23;20005;-82
2023/11/26 01:04:26;;;;;;;57.40;21.33;;;;;;;;;;6128523;23;20005;-82
2023/11/26 01:06:53;;;;;;;38.95;17.55;;;;;;;;;;6128169;23;20081;-82
2023/11/26 01:09:19;;;;;;;36.63;16.48;;;;;;;;;;6127825;23;20706;-82
2023/11/26 01:11:45;;;;;;;35.42;9.20;;;;;;;;;;6128401;23;20084;-82
2023/11/26 01:14:11;;;;;;;12.05;5.93;;;;;;;;;;6128174;23;20009;-82
2023/11/26 01:16:38;;;;;;;7.80;3.28;;;;;;;;;;6127399;23;20341;-82
2023/11/26 01:19:04;;;;;;;9.23;4.22;;;;;;;;;;6127709;23;20390;-81
2023/11/26 01:21:30;;;;;;;11.00;3.97;;;;;;;;;;6153111;23;20009;-82
2023/11/26 01:23:56;;;;;;;13.68;6.15;;;;;;;;;;6153966;23;20513;-82
2023/11/26 01:26:22;;;;;;;24.17;7.45;;;;;;;;;;6153065;23;20010;-82
2023/11/26 01:28:48;;;;;;;28.75;8.50;;;;;;;;;;6154328;23;20020;-82
2023/11/26 01:31:14;;;;;;;20.50;6.13;;;;;;;;;;6127336;23;20017;-82
2023/11/26 01:33:40;;;;;;;20.55;6.32;;;;;;;;;;6128346;23;20133;-83
2023/11/26 01:36:08;;;;;;;11.02;6.57;;;;;;;;;;6127548;23;20005;-83
2023/11/26 01:38:34;;;;;;;20.27;7.43;;;;;;;;;;6127514;23;20093;-83
2023/11/26 01:41:00;;;;;;;13.23;3.92;;;;;;;;;;6127308;23;20005;-83
2023/11/26 01:43:29;;;;;;;19.40;3.70;;;;;;;;;;6127731;23;20021;-82
2023/11/26 01:46:03;;;;;;;11.70;5.82;;;;;;;;;;6126712;23;20048;-82
2023/11/26 01:48:29;;;;;;;16.95;2.72;;;;;;;;;;6127197;23;20014;-82
2023/11/26 01:50:58;;;;;;;7.45;3.35;;;;;;;;;;6126918;23;20433;-82
2023/11/26 01:53:25;;;;;;;5.82;2.50;;;;;;;;;;6153461;23;20754;-82
2023/11/26 01:55:51;;;;;;;2.25;1.48;;;;;;;;;;6126515;23;20025;-82
2023/11/26 01:58:17;;;;;;;8.13;2.22;;;;;;;;;;6126487;23;20014;-82
2023/11/26 02:00:44;;;;;;;2.40;0.82;;;;;;;;;;6149473;23;20027;-82
2023/11/26 02:03:11;;;;;;;5.63;1.60;;;;;;;;;;6182588;23;20444;-82
2023/11/26 02:05:37;;;;;;;9.32;1.30;;;;;;;;;;6181343;23;20033;-84
2023/11/26 02:08:03;;;;;;;1.73;0.47;;;;;;;;;;6180830;23;20100;-81
2023/11/26 02:10:30;;;;;;;1.35;0.50;;;;;;;;;;6180956;23;20009;-81
2023/11/26 02:13:06;;;;;;;0.57;0.30;;;;;;;;;;6182281;23;20086;-81
2023/11/26 02:15:33;;;;;;;2.38;0.73;;;;;;;;;;6183035;23;20079;-82
2023/11/26 02:17:59;;;;;;;1.20;0.55;;;;;;;;;;6181975;23;20017;-82
2023/11/26 02:20:28;;;;;;;1.58;0.98;;;;;;;;;;6180924;23;20005;-82
2023/11/26 02:22:54;;;;;;;3.30;1.27;;;;;;;;;;6180921;23;20009;-82
2023/11/26 02:25:23;;;;;;;2.53;1.02;;;;;;;;;;6182382;23;20025;-82
2023/11/26 02:27:49;;;;;;;1.58;0.43;;;;;;;;;;6180410;23;20091;-82
2023/11/26 02:30:20;;;;;;;1.20;0.82;;;;;;;;;;6180872;23;20773;-82
2023/11/26 02:32:46;;;;;;;1.75;1.08;;;;;;;;;;6182502;23;20012;-82
2023/11/26 02:35:12;;;;;;;0.63;0.30;;;;;;;;;;6181130;23;20012;-82
2023/11/26 02:37:38;;;;;;;0.63;0.45;;;;;;;;;;6180013;23;20072;-82
2023/11/26 02:40:08;;;;;;;3.60;1.05;;;;;;;;;;6181036;23;20727;-82
2023/11/26 02:42:34;;;;;;;21.65;3.33;;;;;;;;;;6182999;23;20016;-82
2023/11/26 02:45:00;;;;;;;11.98;5.43;;;;;;;;;;6182551;23;20000;-82
2023/11/26 02:47:26;;;;;;;7.18;4.80;;;;;;;;;;6180646;23;20369;-82
2023/11/26 02:49:52;;;;;;;11.88;3.90;;;;;;;;;;6182021;23;20012;-82
2023/11/26 02:52:19;;;;;;;14.52;2.63;;;;;;;;;;6180731;23;20016;-83
2023/11/26 02:54:45;;;;;;;4.93;1.35;;;;;;;;;;6180167;23;20020;-82
2023/11/26 02:57:11;;;;;;;4.13;0.85;;;;;;;;;;6180654;23;20017;-82
2023/11/26 02:59:37;;;;;;;6.78;1.35;;;;;;;;;;6179743;23;20017;-82
2023/11/26 03:02:03;;;;;;;1.50;1.10;;;;;;;;;;6155928;23;20418;-83
2023/11/26 03:04:29;;;;;;;4.53;1.00;;;;;;;;;;6155796;23;20455;-82
2023/11/26 03:06:57;;;;;;;4.88;1.33;;;;;;;;;;6156070;23;20004;-82
2023/11/26 03:14:44;;;;;;;1.95;0.88;;;;;;;;;;6181359;23;20060;-83
2023/11/26 03:17:10;;;;;;;0.75;0.20;;;;;;;;;;6155592;23;20704;-82
2023/11/26 03:19:37;;;;;;;0.80;0.52;;;;;;;;;;6154951;23;20012;-82
2023/11/26 03:22:07;;;;;;;1.73;0.90;;;;;;;;;;6156174;23;20031;-82
2023/11/26 03:24:33;;;;;;;0.75;0.32;;;;;;;;;;6155454;23;20039;-82
2023/11/26 03:26:59;;;;;;;1.17;0.55;;;;;;;;;;6156380;23;20044;-82
2023/11/26 03:29:28;;;;;;;0.10;0.10;;;;;;;;;;6156273;23;20033;-83
2023/11/26 03:31:54;;;;;;;1.58;0.73;;;;;;;;;;6155813;23;20108;-82
2023/11/26 03:34:20;;;;;;;2.45;1.08;;;;;;;;;;6155231;23;20013;-82
2023/11/26 03:36:46;;;;;;;4.45;0.75;;;;;;;;;;6155732;23;20087;-82
2023/11/26 03:39:12;;;;;;;0.70;0.32;;;;;;;;;;6181613;23;20055;-82
2023/11/26 03:41:41;;;;;;;2.08;0.77;;;;;;;;;;6155846;23;20009;-82
2023/11/26 03:44:07;;;;;;;0.65;0.10;;;;;;;;;;6156723;23;20013;-82
2023/11/26 03:46:35;;;;;;;1.88;0.47;;;;;;;;;;6156288;23;20084;-82
2023/11/26 03:49:01;;;;;;;4.43;0.28;;;;;;;;;;6182792;23;20113;-82
2023/11/26 03:51:28;;;;;;;4.72;1.02;;;;;;;;;;6157865;23;20013;-82
2023/11/26 03:53:54;;;;;;;0.82;0.30;;;;;;;;;;6184704;23;20013;-82
2023/11/26 03:56:20;;;;;;;3.95;1.10;;;;;;;;;;6157823;23;20016;-82
2023/11/26 03:58:46;;;;;;;4.68;0.93;;;;;;;;;;6184181;23;20503;-82
2023/11/26 04:01:12;;;;;;;0.90;0.32;;;;;;;;;;6156036;23;20044;-82
2023/11/26 04:03:39;;;;;;;2.25;1.08;;;;;;;;;;6181141;23;20009;-82
2023/11/26 04:06:06;;;;;;;4.13;1.35;;;;;;;;;;6182051;23;20001;-82
2023/11/26 04:08:31;;;;;;;5.10;1.90;;;;;;;;;;6183096;23;20013;-82
2023/11/26 04:10:57;;;;;;;1.75;0.85;;;;;;;;;;6180194;23;20019;-82
2023/11/26 04:13:27;;;;;;;1.75;1.27;;;;;;;;;;6180388;23;20017;-82
2023/11/26 04:15:58;;;;;;;4.93;1.25;;;;;;;;;;6179504;23;20008;-82
2023/11/26 04:18:27;;;;;;;1.43;0.43;;;;;;;;;;6180956;23;20576;-82
2023/11/26 04:20:53;;;;;;;2.15;1.58;;;;;;;;;;6180266;23;20228;-82
2023/11/26 04:23:19;;;;;;;0.75;0.50;;;;;;;;;;6183609;23;20076;-81
2023/11/26 04:25:45;;;;;;;0.47;0.32;;;;;;;;;;6181034;23;20810;-82
2023/11/26 04:28:12;;;;;;;1.10;0.50;;;;;;;;;;6181527;23;20020;-82
2023/11/26 04:30:39;;;;;;;6.53;0.52;;;;;;;;;;6182958;23;20042;-82
2023/11/26 04:33:05;;;;;;;0.70;0.22;;;;;;;;;;6182514;23;20021;-82
2023/11/26 04:35:31;;;;;;;0.45;0.20;;;;;;;;;;6181643;23;20088;-82
2023/11/26 04:37:57;;;;;;;0.70;0.30;;;;;;;;;;6179750;23;20041;-82
2023/11/26 04:40:23;;;;;;;0.65;0.30;;;;;;;;;;6180268;23;20009;-81
2023/11/26 04:42:49;;;;;;;2.40;0.40;;;;;;;;;;6180399;23;20021;-82
2023/11/26 04:45:15;;;;;;;1.00;0.17;;;;;;;;;;6181822;23;20425;-82
2023/11/26 04:47:41;;;;;;;0.80;0.45;;;;;;;;;;6181631;23;20041;-82
2023/11/26 04:50:07;;;;;;;1.08;0.43;;;;;;;;;;6181364;23;20132;-81
2023/11/26 04:52:33;;;;;;;1.67;0.17;;;;;;;;;;6181307;23;20536;-82
2023/11/26 04:54:59;;;;;;;0.17;0.10;;;;;;;;;;6182223;23;20044;-82
2023/11/26 04:57:25;;;;;;;3.30;0.65;;;;;;;;;;6182588;23;20017;-81
2023/11/26 04:59:52;;;;;;;1.75;0.70;;;;;;;;;;6180688;23;20017;-82
2023/11/26 05:02:18;;;;;;;2.78;1.42;;;;;;;;;;6155882;23;20134;-82
2023/11/26 05:04:45;;;;;;;0.17;0.08;;;;;;;;;;6156693;23;20015;-82
2023/11/26 05:07:11;;;;;;;0.40;0.30;;;;;;;;;;6182999;23;20072;-82
2023/11/26 05:09:37;;;;;;;0.52;0.32;;;;;;;;;;6155543;23;20012;-82
2023/11/26 05:12:05;;;;;;;2.10;1.10;;;;;;;;;;6182711;23;20001;-82
2023/11/26 05:14:31;;;;;;;1.33;0.45;;;;;;;;;;6157348;23;20009;-82
2023/11/26 05:16:57;;;;;;;2.15;0.55;;;;;;;;;;6184148;23;20005;-83
2023/11/26 05:19:23;;;;;;;2.45;1.10;;;;;;;;;;6183398;23;20050;-82
2023/11/26 05:21:49;;;;;;;0.55;0.25;;;;;;;;;;6156996;23;20024;-82
2023/11/26 05:24:15;;;;;;;2.45;1.20;;;;;;;;;;6157153;23;20009;-82
2023/11/26 05:26:41;;;;;;;0.88;0.80;;;;;;;;;;6157656;23;20005;-82
2023/11/26 05:29:08;;;;;;;1.38;0.88;;;;;;;;;;6184306;23;20013;-82
2023/11/26 05:31:34;;;;;;;0.70;0.30;;;;;;;;;;6184220;23;20172;-82
2023/11/26 05:34:00;;;;;;;10.98;0.73;;;;;;;;;;6184152;23;20008;-82
2023/11/26 05:36:26;;;;;;;3.85;0.35;;;;;;;;;;6157275;23;20047;-82
2023/11/26 05:38:53;;;;;;;1.98;0.95;;;;;;;;;;6183192;23;20009;-82
2023/11/26 05:41:19;;;;;;;5.30;2.50;;;;;;;;;;6183451;23;20197;-82
2023/11/26 05:43:45;;;;;;;3.20;0.73;;;;;;;;;;6184517;23;20354;-82
2023/11/26 05:46:11;;;;;;;0.82;0.52;;;;;;;;;;6183285;23;20008;-82
2023/11/26 05:48:37;;;;;;;2.35;0.47;;;;;;;;;;6157228;23;20021;-81
2023/11/26 05:51:03;;;;;;;3.33;0.77;;;;;;;;;;6183785;23;20009;-82
2023/11/26 05:53:29;;;;;;;7.95;1.13;;;;;;;;;;6157779;23;20524;-82
2023/11/26 05:55:55;;;;;;;3.53;0.82;;;;;;;;;;6182444;23;20033;-81
2023/11/26 05:58:21;;;;;;;2.72;1.13;;;;;;;;;;6183779;23;20100;-81
2023/11/26 06:00:47;;;;;;;3.58;0.82;;;;;;;;;;6154957;23;20076;-81
2023/11/26 06:03:13;;;;;;;1.75;0.68;;;;;;;;;;6181578;23;20054;-82
2023/11/26 06:05:39;;;;;;;12.15;1.20;;;;;;;;;;6180540;23;20013;-82
2023/11/26 06:08:05;;;;;;;1.15;0.50;;;;;;;;;;6183171;23;20013;-81
2023/11/26 06:10:32;;;;;;;0.93;0.63;;;;;;;;;;6181201;23;20017;-82
2023/11/26 06:12:58;;;;;;;2.15;0.40;;;;;;;;;;6181139;23;20427;-82
2023/11/26 06:15:25;;;;;;;0.85;0.60;;;;;;;;;;6183220;23;20054;-81
2023/11/26 06:17:51;;;;;;;2.53;0.98;;;;;;;;;;6179508;23;20017;-82
2023/11/26 06:20:17;;;;;;;1.00;0.30;;;;;;;;;;6181560;23;20009;-82
2023/11/26 06:22:43;;;;;;;0.43;0.30;;;;;;;;;;6181669;23;20013;-81
2023/11/26 06:25:13;;;;;;;3.90;1.40;;;;;;;;;;6180418;23;20060;-81
2023/11/26 06:27:39;;;;;;;5.10;0.38;;;;;;;;;;6179527;23;20124;-82
2023/11/26 06:30:06;;;;;;;0.75;0.40;;;;;;;;;;6180437;23;20009;-81
2023/11/26 06:32:32;;;;;;;2.55;1.05;;;;;;;;;;6180047;23;20021;-81
2023/11/26 06:34:59;;;;;;;2.25;0.95;;;;;;;;;;6182964;23;20009;-82
2023/11/26 06:37:26;;;;;;;4.38;0.75;;;;;;;;;;6182859;23;20013;-82
2023/11/26 06:39:53;;;;;;;1.67;0.93;;;;;;;;;;6181775;23;20044;-79
2023/11/26 06:42:19;;;;;;;1.77;0.57;;;;;;;;;;6181847;23;20239;-79
2023/11/26 06:44:45;;;;;;;1.30;0.52;;;;;;;;;;6181723;23;20016;-80
2023/11/26 06:47:11;;;;;;;2.67;1.15;;;;;;;;;;6183236;23;20012;-80
2023/11/26 06:49:37;;;;;;;3.47;1.17;;;;;;;;;;6182383;23;20005;-81
2023/11/26 06:52:03;;;;;;;1.15;0.32;;;;;;;;;;6181966;23;20417;-80
2023/11/26 06:54:29;;;;;;;3.20;0.70;;;;;;;;;;6184450;23;20920;-83
2023/11/26 06:56:55;;;;;;;1.38;1.05;;;;;;;;;;6182594;23;20028;-82
2023/11/26 06:59:21;;;;;;;0.70;0.30;;;;;;;;;;6179675;23;20056;-83
2023/11/26 07:01:48;;;;;;;3.40;0.75;;;;;;;;;;6155619;23;20484;-80
2023/11/26 07:04:14;;;;;;;2.40;1.30;;;;;;;;;;6181635;23;20319;-79
2023/11/26 07:06:41;;;;;;;1.92;0.38;;;;;;;;;;6181339;23;20005;-80
2023/11/26 07:09:09;;;;;;;5.13;0.95;;;;;;;;;;6183000;23;20024;-80
2023/11/26 07:11:35;;;;;;;1.92;0.88;;;;;;;;;;6182041;23;20520;-81
2023/11/26 07:14:06;;;;;;;3.88;0.93;;;;;;;;;;6182555;23;20037;-82
2023/11/26 07:16:32;;;;;;;5.28;1.15;;;;;;;;;;6180593;23;20013;-82
2023/11/26 07:18:58;;;;;;;3.05;0.60;;;;;;;;;;6156641;23;20440;-82
2023/11/26 07:21:24;;;;;;;4.18;1.25;;;;;;;;;;6182450;23;20080;-82
2023/11/26 07:23:50;;;;;;;3.55;1.20;;;;;;;;;;6182101;23;20009;-81
2023/11/26 07:26:23;;;;;;;0.95;0.65;;;;;;;;;;6181046;23;20065;-80
2023/11/26 07:28:52;;;;;;;0.43;0.30;;;;;;;;;;6182270;23;20017;-83
2023/11/26 07:31:19;;;;;;;2.38;1.10;;;;;;;;;;6154746;23;20056;-83
2023/11/26 07:33:46;;;;;;;0.22;0.22;;;;;;;;;;6155798;23;20031;-82
2023/11/26 07:36:22;;;;;;;7.88;0.65;;;;;;;;;;6181715;23;20056;-86
2023/11/26 07:38:52;;;;;;;1.45;1.10;;;;;;;;;;6154110;23;20047;-82
2023/11/26 07:41:18;;;;;;;2.47;0.32;;;;;;;;;;6182046;23;20005;-83
2023/11/26 07:43:45;;;;;;;4.20;1.65;;;;;;;;;;6182461;23;20013;-82
2023/11/26 07:46:12;;;;;;;0.80;0.30;;;;;;;;;;6182325;23;20076;-82
2023/11/26 07:48:38;;;;;;;2.00;0.75;;;;;;;;;;6156458;23;20013;-82
2023/11/26 07:51:05;;;;;;;3.20;1.35;;;;;;;;;;6183069;23;20011;-83
2023/11/26 07:53:36;;;;;;;4.38;1.50;;;;;;;;;;6155749;23;20083;-82
2023/11/26 07:56:02;;;;;;;2.20;1.27;;;;;;;;;;6152009;23;20009;-81
2023/11/26 07:58:28;;;;;;;3.00;1.35;;;;;;;;;;6182597;23;20348;-83
2023/11/26 08:00:58;;;;;;;2.28;1.02;;;;;;;;;;6156661;23;20024;-81
2023/11/26 08:03:26;;;;;;;3.25;1.50;;;;;;;;;;6152036;23;20044;-82
2023/11/26 08:05:53;;;;;;;5.28;1.70;;;;;;;;;;6149098;23;20012;-81
2023/11/26 08:08:21;;;;;;;8.50;2.65;;;;;;;;;;6151635;23;20010;-81
2023/11/26 08:10:51;;;;;;;2.72;0.50;;;;;;;;;;6150774;23;20014;-81
2023/11/26 08:13:22;;;;;;;3.05;0.95;;;;;;;;;;6151941;23;20009;-82
2023/11/26 08:15:51;;;;;;;1.50;0.75;;;;;;;;;;6151363;23;20040;-83
2023/11/26 08:18:18;;;;;;;17.23;4.63;;;;;;;;;;6150958;23;20015;-83
2023/11/26 08:20:46;;;;;;;13.00;6.65;;;;;;;;;;6151190;23;20517;-82
2023/11/26 08:23:12;;;;;;;14.25;6.28;;;;;;;;;;6152219;23;20053;-81
2023/11/26 08:25:44;;;;;;;17.05;4.80;;;;;;;;;;6151345;23;20005;-82
2023/11/26 08:28:11;;;;;;;16.63;2.78;;;;;;;;;;6151744;23;20052;-80
2023/11/26 08:30:42;;;;;;;13.25;2.40;;;;;;;;;;6150596;23;20013;-81
2023/11/26 08:33:10;;;;;;;1.92;1.38;;;;;;;;;;6151423;23;20009;-81
2023/11/26 08:35:37;;;;;;;8.63;1.83;;;;;;;;;;6149649;23;20473;-79
2023/11/26 08:38:05;;;;;;;8.63;2.72;;;;;;;;;;6150492;23;20430;-80
2023/11/26 08:40:34;;;;;;;5.45;1.80;;;;;;;;;;6151706;23;20314;-80
2023/11/26 08:43:04;;;;;;;5.25;1.30;;;;;;;;;;6151816;23;20074;-79
2023/11/26 08:45:30;;;;;;;8.60;1.85;;;;;;;;;;6149363;23;20438;-84
2023/11/26 08:47:57;;;;;;;11.88;4.85;;;;;;;;;;6152004;23;20092;-80
2023/11/26 08:50:26;;;;;;;17.73;5.20;;;;;;;;;;6153148;23;20010;-81
2023/11/26 08:52:55;;;;;;;7.47;2.80;;;;;;;;;;6153466;23;20048;-81
2023/11/26 08:55:21;;;;;;;9.07;3.85;;;;;;;;;;6152310;23;20414;-81
2023/11/26 08:57:47;;;;;;;7.20;3.40;;;;;;;;;;6153722;23;20016;-81
2023/11/26 09:00:13;;;;;;;7.53;3.30;;;;;;;;;;6167977;23;20013;-81
2023/11/26 09:02:40;;;;;;;5.93;2.95;;;;;;;;;;6182597;23;20012;-80
2023/11/26 09:05:09;;;;;;;6.18;2.50;;;;;;;;;;6180563;23;20120;-82
2023/11/26 09:07:36;;;;;;;8.27;3.28;;;;;;;;;;6182735;23;20064;-79
2023/11/26 09:10:03;;;;;;;9.52;3.85;;;;;;;;;;6181333;23;20016;-80
2023/11/26 09:12:29;;;;;;;6.80;2.83;;;;;;;;;;6182713;23;20017;-79
2023/11/26 09:14:56;;;;;;;9.15;2.42;;;;;;;;;;6182905;23;20013;-80
2023/11/26 09:17:22;;;;;;;2.50;1.23;;;;;;;;;;6183024;23;20655;-79
2023/11/26 09:19:48;;;;;;;4.68;3.35;;;;;;;;;;6182664;23;20029;-80
2023/11/26 09:22:14;;;;;;;2.95;1.48;;;;;;;;;;6182828;23;20009;-80
2023/11/26 09:24:40;;;;;;;11.20;3.38;;;;;;;;;;6182465;23;20019;-81
2023/11/26 09:27:06;;;;;;;11.07;4.25;;;;;;;;;;6180136;23;20080;-81
2023/11/26 09:29:32;;;;;;;10.98;4.55;;;;;;;;;;6182302;23;20044;-81
2023/11/26 09:31:58;;;;;;;16.38;3.58;;;;;;;;;;6181956;23;20013;-80
2023/11/26 09:34:25;;;;;;;10.30;5.30;;;;;;;;;;6180438;23;20017;-86
2023/11/26 09:36:56;;;;;;;18.10;7.15;;;;;;;;;;6180732;23;20009;-83
2023/11/26 09:39:22;;;;;;;7.93;3.75;;;;;;;;;;6180094;23;20052;-83
2023/11/26 09:41:48;;;;;;;6.43;2.97;;;;;;;;;;6180759;23;20456;-83
2023/11/26 09:44:14;;;;;;;2.35;1.23;;;;;;;;;;6180531;23;20519;-83
2023/11/26 09:46:42;;;;;;;3.35;1.13;;;;;;;;;;6181058;23;20080;-82
2023/11/26 09:49:08;;;;;;;3.95;1.30;;;;;;;;;;6180480;23;20448;-83
2023/11/26 09:51:36;;;;;;;1.85;0.85;;;;;;;;;;6181246;23;20017;-83
2023/11/26 09:54:04;;;;;;;1.60;0.93;;;;;;;;;;6182278;23;20760;-83
2023/11/26 09:56:30;;;;;;;7.10;1.17;;;;;;;;;;6155764;23;20021;-83
2023/11/26 09:58:56;;;;;;;2.13;0.85;;;;;;;;;;6154866;23;20522;-82
2023/11/26 10:01:22;;;;;;;10.65;1.17;;;;;;;;;;6181107;23;20013;-83
2023/11/26 10:03:58;;;;;;;1.55;0.98;;;;;;;;;;6180335;23;20024;-83
2023/11/26 10:06:28;;;;;;;1.73;0.80;;;;;;;;;;6181469;23;20016;-83
2023/11/26 10:08:54;;;;;;;1.63;1.10;;;;;;;;;;6180092;23;20017;-83
2023/11/26 10:11:24;;;;;;;0.40;0.30;;;;;;;;;;6182707;23;20012;-83
2023/11/26 10:13:50;;;;;;;2.38;1.27;;;;;;;;;;6180813;23;20020;-83
2023/11/26 10:16:35;;;;;;;1.30;0.88;;;;;;;;;;6180805;23;20140;-83
2023/11/26 10:19:02;;;;;;;1.52;0.90;;;;;;;;;;6180178;23;20463;-83
2023/11/26 10:21:28;;;;;;;2.40;0.98;;;;;;;;;;6180945;23;20005;-83
2023/11/26 10:23:54;;;;;;;0.57;0.20;;;;;;;;;;6180530;23;20531;-83
2023/11/26 10:26:22;;;;;;;1.80;0.70;;;;;;;;;;6180030;23;20061;-82
2023/11/26 10:29:08;;;;;;;2.38;1.52;;;;;;;;;;6180426;23;20021;-82
2023/11/26 10:31:35;;;;;;;7.28;2.45;;;;;;;;;;6178911;23;20111;-82
2023/11/26 10:34:14;;;;;;;5.40;1.70;;;;;;;;;;6181973;23;20088;-82
2023/11/26 10:36:40;;;;;;;3.40;1.90;;;;;;;;;;6182543;23;20054;-82
2023/11/26 10:39:09;;;;;;;6.93;2.25;;;;;;;;;;6180654;23;20012;-81
2023/11/26 10:41:35;;;;;;;12.80;1.80;;;;;;;;;;6180958;23;20084;-81
2023/11/26 10:44:02;;;;;;;3.50;1.23;;;;;;;;;;6177737;23;20036;-81
2023/11/26 10:46:29;;;;;;;3.20;2.13;;;;;;;;;;6180309;23;20701;-83
2023/11/26 10:48:59;;;;;;;1.20;0.93;;;;;;;;;;6182758;23;21017;-83
2023/11/26 10:51:26;;;;;;;3.25;1.40;;;;;;;;;;6178955;23;20033;-83
2023/11/26 10:53:55;;;;;;;6.18;2.75;;;;;;;;;;6180056;23;20447;-82
2023/11/26 10:56:28;;;;;;;2.42;1.40;;;;;;;;;;6179651;23;20016;-82
2023/11/26 10:58:58;;;;;;;0.30;0.20;;;;;;;;;;6180643;23;20064;-82
2023/11/26 11:01:24;;;;;;;2.35;1.05;;;;;;;;;;6179520;23;20020;-82
2023/11/26 11:03:55;;;;;;;1.98;0.90;;;;;;;;;;6182323;23;20009;-82
2023/11/26 11:06:23;;;;;;;1.85;0.40;;;;;;;;;;6181137;23;20005;-82
2023/11/26 11:08:49;;;;;;;2.47;1.52;;;;;;;;;;6181215;23;20303;-83
2023/11/26 11:11:34;;;;;;;1.00;0.25;;;;;;;;;;6179898;23;20813;-82
2023/11/26 11:14:01;;;;;;;1.42;0.60;;;;;;;;;;6179994;23;20103;-82
2023/11/26 11:16:27;;;;;;;0.50;0.25;;;;;;;;;;6180850;23;20088;-82
2023/11/26 11:18:56;;;;;;;3.90;0.70;;;;;;;;;;6181499;23;20009;-83
2023/11/26 11:21:23;;;;;;;1.90;0.70;;;;;;;;;;6177480;23;20377;-82
2023/11/26 11:23:50;;;;;;;0.85;0.50;;;;;;;;;;6179853;23;20219;-83
2023/11/26 11:26:17;;;;;;;0.13;0.13;;;;;;;;;;6181963;23;20005;-83
2023/11/26 11:28:51;;;;;;;0.40;0.20;;;;;;;;;;6181495;23;20013;-83
2023/11/26 11:31:37;;;;;;;1.75;0.20;;;;;;;;;;6181480;23;20437;-83
2023/11/26 11:34:04;;;;;;;0.32;0.20;;;;;;;;;;6160746;23;20353;-83
2023/11/26 11:39:15;;;;;;;0.88;0.32;;;;;;;;;;6180591;23;20025;-83
2023/11/26 11:41:59;;;;;;;0.52;0.08;;;;;;;;;;6181013;23;20016;-84
2023/11/26 11:44:25;;;;;;;1.17;0.40;;;;;;;;;;6178967;23;20456;-82
2023/11/26 11:46:51;;;;;;;0.75;0.47;;;;;;;;;;6179958;23;20005;-83
2023/11/26 11:49:17;;;;;;;0.85;0.38;;;;;;;;;;6180383;23;20063;-83
2023/11/26 11:51:44;;;;;;;0.03;0.00;;;;;;;;;;6180430;23;20092;-83
2023/11/26 11:54:10;;;;;;;1.52;0.70;;;;;;;;;;6181035;23;20410;-82
2023/11/26 11:56:37;;;;;;;0.85;0.28;;;;;;;;;;6181837;23;20019;-85
2023/11/26 11:59:04;;;;;;;0.08;0.03;;;;;;;;;;6180257;23;20061;-84
2023/11/26 12:01:30;;;;;;;0.43;0.20;;;;;;;;;;6182547;23;20074;-84
2023/11/26 12:04:00;;;;;;;0.00;0.00;;;;;;;;;;6184627;23;20031;-83
2023/11/26 12:06:26;;;;;;;;;;;;;;;;;;6181355;23;20012;-89
2023/11/26 12:24:46;;;;;;;0.28;0.17;;;;;;;;;;6170696;23;20132;-85
2023/11/26 12:30:45;;;;;;;0.47;0.30;;;;;;;;;;6208303;22;20078;-87
2023/11/26 12:39:38;;;;;;;0.65;0.20;;;;;;;;;;6186815;23;20076;-85
2023/11/26 12:45:34;;;;;;;0.40;0.15;;;;;;;;;;6094174;23;20105;-87
2023/11/26 12:48:21;;;;;;;;;;;;;;;;;;;;;
2023/11/26 12:51:07;;;;;;;3.53;0.13;;;;;;;;;;6178231;23;20112;-85
2023/11/26 12:57:09;;;;;;;0.82;0.40;;;;;;;;;;6180016;23;20155;-87
2023/11/26 13:00:10;;;;;;;3.33;0.52;;;;;;;;;;6128696;23;20017;-84
2023/11/26 13:08:41;;;;;;;4.28;0.68;;;;;;;;;;6167227;22;20036;-86
2023/11/26 15:48:41;;;;;;;;;;;;;;;;;;;;;
2023/11/26 16:17:51;;;;;;;;;;;;;;;;;;;;;
2023/11/26 16:34:44;;;;;;;;;;;;;;;;;;;;;
2023/11/26 16:46:08;;;;;;;;;;;;;;;;;;;;;
2023/11/26 19:14:22;;;;;;;4.05;1.45;;;;;;;;;;6176046;23;20341;-87
